Revelstoke Airport
CYRV : now visible

Airfield :











YOU CAN JOIN US ON...

 
LOGIN :

Register | Disclaimer

   EN    FR    IT 

 









Legend :    VFR   Marginal VFR   IFR   Intensive IFR   Very Intensive IFR
Visi :
Ceiling :
>= 8 km
>= 3000ft
5 to 8 km
1000 to 3000 ft
1500m to 5 km
500 to 1000 ft
800 to 1500m
200 to 500 ft
< 800m
< 200 ft
Symbols :   Thunderstorms  Fog  Heavy snow  Heavy precipitations  Wind > 20 kt






- Airport Elevation : 1459 ft
- IATA code : YRV


CYRV - Revelstoke

CURRENT METAR :
  • 260200Z AUTO 01006KT 9SM OVC022 14/11 A2995 RMK SLP150 DENSITY ALT 1600FT

EXPIRED METARs :
  • 260100Z AUTO 35006KT 9SM BKN025 OVC070 14/12 A2994 RMK SLP147 DENSITY ALT 1600FT
  • 260019Z AUTO 36004KT 300V010 9SM BKN027 BKN065 OVC078 15/12 A2995 RMK SLP149 DENSITY ALT 1700FT
  • 260000Z AUTO 34006KT 9SM FEW026 BKN065 OVC078 15/11 A2995 RMK SLP150 DENSITY ALT 1700FT

TAF N/A
CZVR FIR / North America



MET'MAP, your aeronautical weather chart ! - Copyright ORBIFLY December 2007 - Disclaimer

ORBIFLY MET'MAP TEAM :

Programming & Development : Alexandra Zaïnal
Concept & original design : Baudouin d'Aumeries
Assistance for programming : Marc-Olivier Méhu
Technical & hardware support : Manuel Goepfert

Contact : metmap@orbifly.com




SOURCES & CREDITS :

   NOAA       Earth
Advisory